Time;durP1;ratioP1;P1;durP2;ratioP2;P2;SDS_P1;SDS_P2;PMS_P1;PMS_P2;Temp;Humidity;BMP_temperature;BMP_pressure;BME280_temperature;BME280_humidity;BME280_pressure;Samples;Min_cycle;Max_cycle;Signal;HPM_P1;HPM_P2
2022/06/18 00:01:57;;;;;;;2.83;1.77;;;21.80;52.50;;;;;;7344814;19;20409;-39
2022/06/18 00:04:29;;;;;;;2.37;1.80;;;21.60;52.50;;;;;;7369954;19;20372;-40
2022/06/18 00:07:07;;;;;;;1.97;1.30;;;21.20;52.70;;;;;;7376445;19;20376;-40
2022/06/18 00:09:41;;;;;;;1.70;1.60;;;21.40;52.50;;;;;;7376241;19;20761;-40
2022/06/18 00:15:02;;;;;;;1.63;1.37;;;21.70;52.20;;;;;;7375760;19;20364;-40
2022/06/18 00:17:32;;;;;;;2.30;1.47;;;21.50;52.20;;;;;;7370845;19;20718;-40
2022/06/18 00:20:04;;;;;;;1.80;1.70;;;21.20;52.50;;;;;;7370194;19;20393;-43
2022/06/18 00:22:36;;;;;;;2.10;1.73;;;21.00;53.50;;;;;;7374358;19;20372;-43
2022/06/18 00:25:18;;;;;;;2.77;1.67;;;21.00;54.00;;;;;;7368348;19;20448;-44
2022/06/18 00:27:47;;;;;;;1.37;1.27;;;21.20;53.80;;;;;;7373877;19;20443;-44
2022/06/18 00:30:25;;;;;;;1.50;1.40;;;21.30;53.50;;;;;;7372578;19;20363;-43
2022/06/18 00:32:55;;;;;;;2.87;2.00;;;21.40;53.50;;;;;;7375138;19;21064;-44
2022/06/18 00:35:25;;;;;;;2.20;1.57;;;21.50;53.10;;;;;;7375603;19;21220;-44
2022/06/18 00:38:02;;;;;;;1.77;1.60;;;21.30;53.60;;;;;;7371914;19;20364;-43
2022/06/18 00:40:35;;;;;;;1.60;1.50;;;21.10;54.40;;;;;;7371940;19;20386;-43
2022/06/18 00:43:08;;;;;;;3.87;2.10;;;20.90;55.00;;;;;;7368616;19;20900;-43
2022/06/18 00:45:40;;;;;;;2.80;1.77;;;20.80;55.10;;;;;;7369757;19;20376;-43
2022/06/18 00:48:19;;;;;;;2.80;1.73;;;20.90;54.80;;;;;;7368387;19;21062;-43
2022/06/18 00:50:53;;;;;;;1.63;1.43;;;20.70;55.50;;;;;;7368165;19;20360;-42
2022/06/18 00:53:28;;;;;;;1.80;1.63;;;20.70;55.40;;;;;;7371095;19;20420;-43
2022/06/18 00:56:03;;;;;;;1.63;1.50;;;20.70;55.50;;;;;;7373183;19;20404;-43
2022/06/18 00:58:37;;;;;;;2.90;2.00;;;20.70;55.50;;;;;;7361381;19;20367;-43
2022/06/18 01:01:14;;;;;;;2.03;1.90;;;20.70;56.30;;;;;;7355663;19;20594;-43
2022/06/18 01:03:46;;;;;;;1.97;1.60;;;20.70;56.40;;;;;;7351099;19;20465;-44
2022/06/18 01:06:20;;;;;;;2.93;1.83;;;20.50;56.60;;;;;;7371332;19;20411;-43
2022/06/18 01:09:00;;;;;;;2.40;1.80;;;20.60;56.70;;;;;;7370752;19;20357;-44
2022/06/18 01:11:33;;;;;;;2.03;1.53;;;20.40;57.40;;;;;;7370195;19;20380;-43
2022/06/18 01:14:05;;;;;;;6.33;1.60;;;20.40;58.00;;;;;;7369452;19;20974;-44
2022/06/18 01:16:37;;;;;;;1.80;1.40;;;20.50;57.70;;;;;;7369467;19;20423;-43
2022/06/18 01:19:21;;;;;;;2.20;2.00;;;20.40;58.00;;;;;;7369756;19;20920;-43
2022/06/18 01:22:00;;;;;;;2.13;1.93;;;20.40;57.70;;;;;;7355392;19;20420;-43
2022/06/18 01:24:39;;;;;;;2.50;2.30;;;20.30;58.50;;;;;;7373277;19;20810;-43
2022/06/18 01:27:11;;;;;;;3.60;2.40;;;20.30;58.70;;;;;;7362142;19;20394;-43
2022/06/18 01:29:41;;;;;;;3.83;2.10;;;20.30;58.40;;;;;;7370653;19;20753;-43
2022/06/18 01:32:15;;;;;;;2.57;1.90;;;20.20;58.30;;;;;;7368949;19;20420;-42
2022/06/18 01:34:48;;;;;;;3.20;2.43;;;20.30;58.30;;;;;;7361126;19;20411;-44
2022/06/18 01:37:18;;;;;;;2.40;2.17;;;20.30;58.10;;;;;;7375610;19;20926;-43
2022/06/18 01:39:51;;;;;;;2.33;2.00;;;20.20;58.70;;;;;;7367763;19;20946;-43
2022/06/18 01:42:26;;;;;;;3.67;2.27;;;20.20;58.90;;;;;;7367973;19;20372;-44
2022/06/18 01:45:00;;;;;;;2.20;2.00;;;20.10;59.10;;;;;;7365868;19;20415;-44
2022/06/18 01:47:43;;;;;;;2.27;2.07;;;20.20;59.10;;;;;;7347180;19;20443;-43
2022/06/18 01:50:18;;;;;;;1.97;1.80;;;20.20;58.70;;;;;;7364294;19;20368;-44
2022/06/18 01:52:52;;;;;;;4.30;3.20;;;20.20;58.70;;;;;;7370609;19;20380;-43
2022/06/18 01:55:29;;;;;;;3.80;1.80;;;20.30;58.60;;;;;;7366225;19;20384;-43
2022/06/18 01:58:03;;;;;;;2.50;2.30;;;20.10;58.80;;;;;;7353169;19;20379;-43
2022/06/18 02:00:33;;;;;;;2.80;2.60;;;20.10;58.60;;;;;;7355693;19;20389;-43
2022/06/18 02:03:07;;;;;;;2.50;1.70;;;20.30;58.30;;;;;;7355284;19;20380;-41
2022/06/18 02:05:39;;;;;;;2.43;2.23;;;20.40;58.20;;;;;;7367593;19;20380;-42
2022/06/18 02:08:11;;;;;;;3.97;2.27;;;20.30;58.80;;;;;;7372597;19;20731;-42
2022/06/18 02:10:48;;;;;;;4.13;2.30;;;20.20;58.90;;;;;;7368168;19;20380;-42
2022/06/18 02:13:19;;;;;;;2.37;2.17;;;20.40;58.80;;;;;;7368091;19;20387;-42
2022/06/18 02:15:49;;;;;;;2.53;2.33;;;20.40;58.80;;;;;;7370437;19;20375;-43
2022/06/18 02:18:21;;;;;;;2.50;2.30;;;20.40;58.50;;;;;;7369421;19;20440;-42
2022/06/18 02:20:53;;;;;;;3.70;2.83;;;20.20;59.20;;;;;;7367694;19;20525;-42
2022/06/18 02:23:25;;;;;;;2.83;2.30;;;20.20;59.40;;;;;;7367172;19;20400;-43
2022/06/18 02:25:57;;;;;;;2.40;2.20;;;20.10;59.50;;;;;;7353183;19;20380;-42
2022/06/18 02:28:33;;;;;;;2.50;2.20;;;20.00;60.10;;;;;;7371626;19;20371;-43
2022/06/18 02:31:05;;;;;;;3.53;2.53;;;20.00;60.10;;;;;;7361685;19;20406;-40
2022/06/18 02:33:39;;;;;;;3.50;2.63;;;20.10;60.60;;;;;;7363639;19;21002;-40
2022/06/18 02:36:15;;;;;;;2.53;2.30;;;20.00;60.40;;;;;;7369599;19;20427;-39
2022/06/18 02:38:46;;;;;;;3.30;2.70;;;19.80;61.70;;;;;;7367329;19;20380;-40
2022/06/18 02:41:22;;;;;;;2.30;2.10;;;19.60;62.60;;;;;;7361243;19;20925;-40
2022/06/18 02:43:52;;;;;;;7.10;2.90;;;19.60;63.30;;;;;;7368255;19;20393;-40
2022/06/18 02:46:25;;;;;;;2.90;2.37;;;19.70;62.20;;;;;;7360296;19;20420;-40
2022/06/18 02:48:56;;;;;;;2.70;2.30;;;19.70;62.50;;;;;;7368732;19;20380;-40
2022/06/18 02:51:26;;;;;;;2.83;2.37;;;19.60;63.90;;;;;;7369731;19;20434;-39
2022/06/18 02:53:58;;;;;;;3.10;2.70;;;19.60;64.10;;;;;;7369768;19;21053;-40
2022/06/18 02:56:31;;;;;;;2.83;2.60;;;19.80;63.90;;;;;;7368088;19;20764;-39
2022/06/18 02:59:01;;;;;;;3.07;2.77;;;20.00;62.50;;;;;;7364502;19;20368;-40
2022/06/18 03:01:32;;;;;;;4.13;2.60;;;19.80;63.00;;;;;;7368314;19;20443;-42
2022/06/18 03:04:03;;;;;;;5.93;3.00;;;19.90;62.80;;;;;;7370011;19;20372;-44
2022/06/18 03:06:36;;;;;;;2.80;2.60;;;19.60;64.00;;;;;;7369453;19;20719;-44
2022/06/18 03:09:06;;;;;;;2.60;2.40;;;19.70;63.80;;;;;;7371696;19;20384;-43
2022/06/18 03:14:21;;;;;;;3.30;2.93;;;19.70;64.10;;;;;;7371299;19;20372;-43
2022/06/18 03:16:51;;;;;;;3.00;2.70;;;19.60;64.90;;;;;;7377522;19;20427;-43
2022/06/18 03:19:36;;;;;;;2.70;2.50;;;19.80;63.90;;;;;;7374851;19;20402;-43
2022/06/18 03:22:12;;;;;;;3.70;2.90;;;19.90;63.70;;;;;;7376128;19;20914;-48
2022/06/18 03:24:42;;;;;;;4.83;2.60;;;19.80;63.70;;;;;;7372544;19;20423;-43
2022/06/18 03:27:18;;;;;;;2.70;2.50;;;19.60;64.60;;;;;;7372451;19;20371;-42
2022/06/18 03:29:52;;;;;;;2.60;2.37;;;19.50;64.70;;;;;;7372237;19;20376;-42
2022/06/18 03:32:23;;;;;;;3.03;2.83;;;19.60;65.40;;;;;;7370483;19;20408;-43
2022/06/18 03:34:54;;;;;;;4.90;3.27;;;19.70;65.30;;;;;;7370469;19;20451;-43
2022/06/18 03:37:27;;;;;;;3.50;2.73;;;19.70;65.10;;;;;;7374794;19;20388;-42
2022/06/18 03:39:56;;;;;;;5.60;2.60;;;19.60;66.10;;;;;;7372877;19;20384;-42
2022/06/18 03:42:29;;;;;;;2.80;2.60;;;19.50;66.10;;;;;;7373821;19;20372;-44
2022/06/18 03:44:59;;;;;;;3.10;2.80;;;19.60;66.20;;;;;;7372696;19;20368;-43
2022/06/18 03:47:31;;;;;;;2.73;2.50;;;19.80;65.70;;;;;;7371464;19;20436;-43
2022/06/18 03:50:03;;;;;;;4.60;3.13;;;19.90;64.80;;;;;;7373898;19;20988;-43
2022/06/18 03:52:33;;;;;;;2.97;2.60;;;19.80;65.10;;;;;;7377592;19;20500;-43
2022/06/18 03:55:03;;;;;;;3.10;2.90;;;19.90;64.80;;;;;;7367321;19;20384;-43
2022/06/18 03:57:35;;;;;;;2.70;2.50;;;20.00;64.10;;;;;;7376749;19;20380;-45
2022/06/18 04:00:07;;;;;;;4.57;2.90;;;20.00;63.90;;;;;;7372445;19;20388;-43
2022/06/18 04:02:46;;;;;;;4.53;3.00;;;20.00;65.30;;;;;;7378236;19;20399;-43
2022/06/18 04:05:19;;;;;;;3.30;2.90;;;19.70;65.90;;;;;;7371886;19;21049;-43
2022/06/18 04:07:49;;;;;;;3.20;2.80;;;19.60;67.00;;;;;;7373749;19;21043;-42
2022/06/18 04:10:36;;;;;;;3.00;2.70;;;19.80;66.20;;;;;;7368750;19;20368;-43
2022/06/18 04:13:09;;;;;;;4.37;3.47;;;19.90;65.10;;;;;;7369818;19;20391;-42
2022/06/18 04:16:12;;;;;;;2.90;2.60;;;20.10;65.00;;;;;;7368911;19;21446;-43
2022/06/18 04:18:46;;;;;;;3.23;2.93;;;20.20;64.00;;;;;;7352333;19;20462;-42
2022/06/18 04:21:17;;;;;;;3.73;3.33;;;20.10;65.70;;;;;;7366291;19;20377;-43
2022/06/18 04:23:47;;;;;;;5.23;3.10;;;20.10;65.40;;;;;;7365587;19;20523;-42
2022/06/18 04:26:17;;;;;;;3.80;3.10;;;20.00;66.20;;;;;;7371423;19;20372;-42
2022/06/18 04:28:52;;;;;;;3.13;2.80;;;20.20;65.90;;;;;;7371999;19;20950;-42
2022/06/18 04:31:25;;;;;;;5.00;2.97;;;20.10;66.10;;;;;;7361778;19;21029;-43
2022/06/18 04:33:56;;;;;;;3.53;2.47;;;20.00;67.30;;;;;;7373525;19;21185;-42
2022/06/18 04:36:35;;;;;;;3.10;2.80;;;19.90;68.30;;;;;;7372853;19;20412;-43
2022/06/18 04:39:15;;;;;;;2.90;2.70;;;19.90;67.10;;;;;;7369090;19;21126;-42
2022/06/18 04:41:50;;;;;;;2.90;2.63;;;19.80;67.40;;;;;;7375630;19;20986;-42
2022/06/18 04:44:29;;;;;;;3.57;3.27;;;19.70;68.30;;;;;;7367476;19;21041;-43
2022/06/18 04:47:07;;;;;;;3.40;2.87;;;20.00;67.10;;;;;;7367210;19;20447;-42
2022/06/18 04:49:37;;;;;;;4.20;3.13;;;20.00;67.70;;;;;;7375405;19;20696;-43
2022/06/18 04:52:07;;;;;;;4.03;3.00;;;19.90;68.20;;;;;;7375100;19;20433;-42
2022/06/18 04:54:41;;;;;;;3.40;3.10;;;19.90;68.70;;;;;;7368762;19;20367;-43
2022/06/18 04:57:13;;;;;;;3.17;2.90;;;20.00;67.90;;;;;;7371597;19;20976;-42
2022/06/18 04:59:46;;;;;;;3.43;3.03;;;20.00;68.80;;;;;;7370180;19;20371;-40
2022/06/18 05:02:21;;;;;;;4.40;3.17;;;20.00;69.10;;;;;;7357606;19;21209;-40
2022/06/18 05:05:13;;;;;;;3.50;3.20;;;19.90;69.70;;;;;;7366731;19;20415;-40
2022/06/18 05:08:18;;;;;;;3.30;2.90;;;19.90;69.20;;;;;;7371313;19;21167;-40
2022/06/18 05:11:09;;;;;;;2.70;2.50;;;20.10;69.70;;;;;;7367678;19;20388;-40
2022/06/18 05:13:48;;;;;;;3.67;2.80;;;20.50;68.00;;;;;;7365858;19;20713;-40
2022/06/18 05:16:46;;;;;;;6.30;2.90;;;20.70;67.10;;;;;;7362098;19;20415;-40
2022/06/18 05:19:25;;;;;;;3.30;3.00;;;20.70;65.10;;;;;;7368086;19;20380;-40
2022/06/18 05:21:58;;;;;;;4.20;2.83;;;20.80;65.30;;;;;;7353819;19;21338;-41
2022/06/18 05:24:28;;;;;;;3.73;3.03;;;21.10;65.20;;;;;;7365213;19;20435;-41
2022/06/18 05:27:01;;;;;;;5.30;2.73;;;21.40;63.50;;;;;;7371791;19;20360;-40
2022/06/18 05:29:33;;;;;;;3.70;2.90;;;21.50;62.60;;;;;;7354032;19;20448;-42
2022/06/18 05:32:05;;;;;;;3.80;3.00;;;21.60;61.90;;;;;;7354282;19;20384;-40
2022/06/18 05:34:39;;;;;;;3.53;3.20;;;21.70;60.70;;;;;;7366261;19;20418;-40
2022/06/18 05:37:14;;;;;;;2.97;2.67;;;21.60;62.30;;;;;;7360446;19;20380;-39
2022/06/18 05:39:44;;;;;;;3.40;3.10;;;21.70;62.90;;;;;;7363918;19;20388;-40
2022/06/18 05:42:14;;;;;;;3.27;2.93;;;21.70;61.50;;;;;;7366576;19;20380;-40
2022/06/18 05:44:43;;;;;;;3.60;3.10;;;21.60;61.20;;;;;;7362497;19;20478;-40
2022/06/18 05:47:18;;;;;;;3.43;3.13;;;21.50;63.00;;;;;;7360511;19;20416;-42
2022/06/18 05:49:48;;;;;;;4.33;3.47;;;21.70;62.90;;;;;;7369124;19;20387;-39
2022/06/18 05:52:20;;;;;;;3.07;2.87;;;21.90;62.50;;;;;;7354926;19;20419;-40
2022/06/18 05:54:51;;;;;;;4.77;3.20;;;21.80;62.50;;;;;;7371627;19;20376;-39
2022/06/18 05:57:47;;;;;;;3.97;3.40;;;21.80;62.80;;;;;;7342567;19;20772;-41
2022/06/18 06:00:37;;;;;;;4.83;3.20;;;21.80;61.80;;;;;;7361736;19;20438;-39
2022/06/18 06:03:11;;;;;;;4.30;3.90;;;22.10;62.40;;;;;;7365441;19;20407;-42
2022/06/18 06:05:41;;;;;;;4.47;2.73;;;22.30;59.80;;;;;;7375924;19;20914;-39
2022/06/18 06:08:13;;;;;;;6.00;3.37;;;22.60;59.20;;;;;;7364360;19;20455;-39
2022/06/18 06:13:29;;;;;;;3.43;3.13;;;22.90;58.40;;;;;;7372972;19;20390;-43
2022/06/18 06:15:59;;;;;;;3.60;3.30;;;22.90;57.90;;;;;;7374204;19;20391;-42
2022/06/18 06:18:32;;;;;;;4.17;3.10;;;23.10;58.80;;;;;;7372431;19;20403;-43
2022/06/18 06:21:02;;;;;;;6.10;3.93;;;23.10;58.50;;;;;;7374979;19;20365;-42
2022/06/18 06:23:35;;;;;;;4.50;3.10;;;23.20;62.00;;;;;;7374103;19;20399;-42
2022/06/18 06:26:05;;;;;;;6.10;4.80;;;23.20;61.10;;;;;;7374994;19;20385;-43
2022/06/18 06:28:34;;;;;;;4.83;4.30;;;23.40;59.20;;;;;;7373767;19;20769;-42
2022/06/18 06:31:04;;;;;;;4.47;3.27;;;23.60;60.30;;;;;;7369337;19;20384;-43
2022/06/18 06:33:40;;;;;;;3.60;3.23;;;23.60;59.80;;;;;;7378234;19;20841;-42
2022/06/18 06:36:12;;;;;;;4.00;3.30;;;23.80;59.60;;;;;;7375173;19;20421;-43
2022/06/18 06:38:42;;;;;;;3.40;3.10;;;24.00;59.10;;;;;;7372080;19;20494;-43
2022/06/18 06:41:17;;;;;;;3.53;2.60;;;24.10;56.60;;;;;;7374854;19;20912;-42
2022/06/18 06:43:47;;;;;;;5.07;3.30;;;24.20;55.20;;;;;;7373509;19;20431;-43
2022/06/18 06:46:17;;;;;;;5.33;3.27;;;24.40;56.60;;;;;;7380453;19;20442;-43
2022/06/18 06:48:50;;;;;;;4.60;2.97;;;24.50;56.80;;;;;;7377648;19;20456;-43
2022/06/18 06:51:22;;;;;;;4.00;3.20;;;24.60;55.00;;;;;;7379072;19;20420;-43
2022/06/18 06:53:52;;;;;;;3.47;2.90;;;24.70;54.90;;;;;;7381387;19;20393;-43
2022/06/18 06:59:07;;;;;;;4.93;4.00;;;24.80;54.20;;;;;;7359576;19;20408;-43
2022/06/18 07:01:37;;;;;;;6.13;3.17;;;24.80;55.00;;;;;;7329223;19;20635;-42
2022/06/18 07:04:12;;;;;;;3.23;2.87;;;24.90;53.30;;;;;;7368242;19;20396;-44
2022/06/18 07:06:43;;;;;;;3.73;2.77;;;25.00;52.50;;;;;;7363158;19;20375;-44
2022/06/18 07:09:12;;;;;;;3.37;3.07;;;25.10;52.80;;;;;;7370942;19;20720;-41
2022/06/18 07:11:43;;;;;;;3.53;2.97;;;25.20;54.50;;;;;;7328735;19;20415;-43
2022/06/18 07:14:12;;;;;;;2.90;2.70;;;25.40;52.80;;;;;;7361044;19;20431;-43
2022/06/18 07:16:50;;;;;;;3.60;3.30;;;25.60;51.90;;;;;;7375317;19;20402;-42
2022/06/18 07:19:23;;;;;;;2.83;2.63;;;25.80;50.90;;;;;;7378256;19;20390;-43
2022/06/18 07:21:54;;;;;;;3.23;3.03;;;25.90;50.90;;;;;;7380737;19;20416;-43
2022/06/18 07:24:24;;;;;;;3.07;2.87;;;25.90;50.40;;;;;;7369125;19;20383;-43
2022/06/18 07:26:54;;;;;;;4.10;3.70;;;26.10;50.60;;;;;;7381172;19;20889;-43
2022/06/18 07:29:25;;;;;;;2.87;2.67;;;26.30;50.90;;;;;;7383438;19;20384;-43
2022/06/18 07:31:55;;;;;;;5.07;3.00;;;26.40;51.40;;;;;;7374634;19;20364;-43
2022/06/18 07:34:27;;;;;;;3.83;3.17;;;26.50;51.00;;;;;;7381077;19;20380;-43
2022/06/18 07:36:57;;;;;;;4.30;2.97;;;26.70;49.40;;;;;;7381807;19;20935;-43
2022/06/18 07:39:26;;;;;;;5.73;3.23;;;26.70;48.40;;;;;;7378721;19;20673;-43
2022/06/18 07:41:59;;;;;;;3.80;3.20;;;26.90;48.00;;;;;;7381040;19;20384;-43
2022/06/18 07:44:30;;;;;;;3.30;2.70;;;27.10;47.80;;;;;;7379073;19;20386;-42
2022/06/18 07:47:01;;;;;;;3.60;2.77;;;27.00;47.60;;;;;;7371971;19;20835;-43
2022/06/18 07:49:33;;;;;;;4.83;3.00;;;27.10;47.70;;;;;;7380882;19;20966;-44
2022/06/18 07:52:03;;;;;;;3.70;3.30;;;27.30;48.30;;;;;;7379733;19;20380;-40
2022/06/18 07:54:33;;;;;;;3.40;3.10;;;27.50;48.20;;;;;;7375340;19;20392;-40
2022/06/18 07:57:02;;;;;;;2.97;2.70;;;27.60;46.40;;;;;;7380372;19;20379;-40
2022/06/18 07:59:32;;;;;;;3.97;2.40;;;27.60;46.20;;;;;;7379010;19;20380;-40
2022/06/18 08:02:01;;;;;;;3.47;3.13;;;27.60;45.70;;;;;;7369233;19;21396;-41
2022/06/18 08:04:34;;;;;;;2.50;2.00;;;27.70;45.50;;;;;;7371866;19;20383;-40
2022/06/18 08:07:04;;;;;;;2.60;2.40;;;27.80;45.30;;;;;;7378631;19;21181;-40
2022/06/18 08:09:33;;;;;;;6.90;2.80;;;28.00;44.10;;;;;;7380359;19;20373;-40
2022/06/18 08:12:03;;;;;;;5.00;2.60;;;28.20;45.10;;;;;;7381487;19;21740;-40
2022/06/18 08:14:33;;;;;;;3.07;2.27;;;28.30;45.30;;;;;;7375544;19;20382;-40
2022/06/18 08:17:02;;;;;;;3.07;2.47;;;28.30;42.40;;;;;;7379062;19;20387;-41
2022/06/18 08:19:37;;;;;;;2.53;2.00;;;28.50;42.00;;;;;;7379628;19;20384;-41
2022/06/18 08:22:07;;;;;;;3.00;2.23;;;28.70;41.40;;;;;;7372200;19;20977;-41
2022/06/18 08:24:36;;;;;;;3.13;2.00;;;28.70;40.80;;;;;;7376317;19;20395;-41
2022/06/18 08:27:08;;;;;;;3.20;2.40;;;28.90;40.90;;;;;;7378915;19;20388;-41
2022/06/18 08:29:38;;;;;;;2.37;2.17;;;29.00;40.20;;;;;;7380594;19;20372;-41
2022/06/18 08:32:08;;;;;;;4.10;2.40;;;29.10;40.40;;;;;;7377687;19;20380;-41
2022/06/18 08:34:40;;;;;;;2.20;2.10;;;29.20;40.30;;;;;;7378803;19;20367;-41
2022/06/18 08:37:11;;;;;;;3.00;2.30;;;29.40;39.60;;;;;;7377170;19;20744;-41
2022/06/18 08:39:44;;;;;;;2.77;2.57;;;29.70;40.60;;;;;;7379122;19;20376;-41
2022/06/18 08:42:31;;;;;;;2.17;2.07;;;29.80;41.10;;;;;;7377152;19;20381;-40
2022/06/18 08:45:14;;;;;;;3.27;2.57;;;29.90;41.20;;;;;;7380884;19;20368;-41
2022/06/18 08:47:58;;;;;;;3.60;2.40;;;30.20;41.10;;;;;;7374702;19;20412;-41
2022/06/18 08:50:44;;;;;;;4.70;2.50;;;30.30;39.70;;;;;;7376616;19;20771;-44
2022/06/18 08:53:36;;;;;;;4.17;2.33;;;30.40;39.30;;;;;;7376727;19;20389;-44
2022/06/18 08:56:10;;;;;;;5.90;2.53;;;30.50;39.30;;;;;;7377958;19;21062;-44
2022/06/18 08:58:49;;;;;;;4.20;2.90;;;30.60;39.60;;;;;;7376403;19;20376;-44
2022/06/18 09:01:23;;;;;;;4.17;2.80;;;30.60;40.00;;;;;;7372861;19;20913;-44
2022/06/18 09:04:08;;;;;;;4.07;2.50;;;30.60;40.00;;;;;;7373639;19;20391;-44
2022/06/18 09:06:55;;;;;;;2.40;2.20;;;30.80;39.70;;;;;;7375270;19;20808;-44
2022/06/18 09:09:32;;;;;;;3.47;2.03;;;31.00;39.00;;;;;;7377970;19;20383;-44
2022/06/18 09:12:09;;;;;;;2.17;2.07;;;31.00;38.60;;;;;;7378889;19;20413;-44
2022/06/18 09:14:49;;;;;;;1.90;1.80;;;31.20;35.90;;;;;;7377315;19;20385;-45
2022/06/18 09:17:24;;;;;;;2.17;2.03;;;31.20;35.10;;;;;;7368078;19;20760;-44
2022/06/18 09:20:01;;;;;;;2.87;2.50;;;31.50;36.40;;;;;;7376974;19;20367;-44
2022/06/18 09:22:40;;;;;;;3.00;2.33;;;31.60;36.90;;;;;;7377848;19;20451;-44
2022/06/18 09:25:16;;;;;;;3.23;2.57;;;31.70;36.40;;;;;;7374130;19;20727;-44
2022/06/18 09:27:51;;;;;;;2.00;1.90;;;31.80;36.00;;;;;;7376429;19;20451;-44
2022/06/18 09:30:25;;;;;;;2.17;1.97;;;31.90;35.10;;;;;;7377414;19;22459;-44
2022/06/18 09:32:58;;;;;;;2.20;1.77;;;31.80;34.80;;;;;;7377941;19;21105;-44
2022/06/18 09:35:32;;;;;;;2.43;2.20;;;31.90;34.10;;;;;;7377864;19;20419;-44
2022/06/18 09:38:09;;;;;;;1.70;1.60;;;32.00;33.50;;;;;;7375788;19;20376;-44
2022/06/18 09:40:41;;;;;;;2.13;1.73;;;32.10;33.40;;;;;;7377167;19;20455;-44
2022/06/18 09:43:16;;;;;;;2.20;1.87;;;32.00;32.40;;;;;;7375799;19;20388;-44
2022/06/18 09:45:50;;;;;;;5.67;1.90;;;32.10;32.20;;;;;;7372501;19;20372;-45
2022/06/18 09:48:20;;;;;;;1.70;1.50;;;32.30;32.00;;;;;;7378793;19;20379;-44
2022/06/18 09:50:52;;;;;;;2.07;1.87;;;32.50;32.70;;;;;;7377977;19;20381;-44
2022/06/18 09:53:29;;;;;;;2.80;1.60;;;32.70;31.70;;;;;;7375309;19;20397;-44
2022/06/18 09:56:10;;;;;;;2.00;1.60;;;32.50;31.70;;;;;;7377697;19;20376;-44
2022/06/18 09:58:45;;;;;;;2.77;1.77;;;32.50;31.50;;;;;;7375428;19;20753;-44
2022/06/18 10:01:19;;;;;;;2.80;1.70;;;32.70;31.30;;;;;;7374073;19;20655;-44
2022/06/18 10:09:24;;;;;;;4.10;1.73;;;32.70;30.70;;;;;;7376612;19;20383;-44
2022/06/18 10:11:57;;;;;;;1.77;1.67;;;32.80;30.00;;;;;;7376690;19;20372;-44
2022/06/18 10:14:26;;;;;;;1.77;1.67;;;32.80;30.10;;;;;;7372199;19;20384;-42
2022/06/18 10:17:11;;;;;;;2.43;1.67;;;33.10;30.00;;;;;;7376948;19;20408;-43
2022/06/18 10:19:52;;;;;;;3.03;1.60;;;33.40;28.80;;;;;;7378624;19;20376;-45
2022/06/18 10:22:29;;;;;;;2.90;1.40;;;33.60;28.90;;;;;;7381110;19;20376;-45
2022/06/18 10:25:08;;;;;;;1.70;1.57;;;33.70;28.70;;;;;;7380047;19;20399;-45
2022/06/18 10:27:44;;;;;;;2.13;1.70;;;33.60;28.20;;;;;;7378218;19;20491;-44
2022/06/18 10:30:19;;;;;;;1.87;1.70;;;33.50;29.40;;;;;;7382704;19;20376;-44
2022/06/18 10:32:59;;;;;;;3.07;2.00;;;33.60;29.60;;;;;;7383231;19;20966;-44
2022/06/18 10:35:40;;;;;;;2.30;1.60;;;34.00;29.50;;;;;;7379536;19;20415;-44
2022/06/18 10:38:45;;;;;;;2.20;2.00;;;33.80;29.90;;;;;;7382300;19;20360;-44
2022/06/18 10:41:25;;;;;;;2.00;1.77;;;33.90;29.20;;;;;;7379719;19;20407;-44
2022/06/18 10:44:04;;;;;;;1.60;1.50;;;33.80;28.10;;;;;;7378610;19;20388;-44
2022/06/18 10:46:34;;;;;;;2.03;1.50;;;33.80;26.20;;;;;;7379923;19;20432;-44
2022/06/18 10:49:06;;;;;;;2.00;1.40;;;33.80;27.20;;;;;;7381685;19;21261;-43
2022/06/18 10:51:44;;;;;;;3.43;1.90;;;34.10;28.20;;;;;;7383363;19;20372;-40
2022/06/18 10:54:15;;;;;;;1.80;1.70;;;34.50;29.20;;;;;;7384974;19;20411;-40
2022/06/18 10:56:52;;;;;;;2.20;2.00;;;34.70;29.40;;;;;;7380924;19;20372;-40
2022/06/18 10:59:32;;;;;;;5.13;1.80;;;35.10;27.30;;;;;;7384054;19;20402;-40
2022/06/18 11:02:20;;;;;;;3.27;2.30;;;35.30;27.60;;;;;;7380282;19;20419;-40
2022/06/18 11:04:58;;;;;;;3.10;1.90;;;35.60;27.50;;;;;;7373650;19;21159;-41
2022/06/18 11:07:33;;;;;;;4.03;1.87;;;35.40;28.60;;;;;;7384117;19;20913;-40
2022/06/18 11:10:07;;;;;;;3.63;1.70;;;35.20;28.90;;;;;;7378919;19;20467;-41
2022/06/18 11:12:41;;;;;;;3.73;1.93;;;35.20;28.80;;;;;;7382607;19;20379;-41
2022/06/18 11:15:29;;;;;;;4.20;2.10;;;35.20;29.40;;;;;;7383884;19;21072;-41
2022/06/18 11:18:01;;;;;;;4.27;1.97;;;35.30;29.50;;;;;;7382213;19;20467;-41
2022/06/18 11:20:33;;;;;;;4.43;1.97;;;35.50;28.00;;;;;;7383797;19;20435;-40
2022/06/18 11:23:06;;;;;;;2.63;1.83;;;35.40;29.50;;;;;;7380276;19;20403;-41
2022/06/18 11:25:49;;;;;;;5.00;2.87;;;35.10;29.40;;;;;;7381657;19;20788;-41
2022/06/18 11:28:24;;;;;;;5.23;2.20;;;35.20;29.80;;;;;;7381689;19;20918;-41
2022/06/18 11:30:54;;;;;;;2.90;1.50;;;35.20;28.50;;;;;;7382095;19;20380;-40
2022/06/18 11:33:30;;;;;;;2.80;2.20;;;35.10;28.90;;;;;;7380850;19;20387;-41
2022/06/18 11:36:09;;;;;;;5.37;2.20;;;35.30;28.80;;;;;;7381318;19;20885;-41
2022/06/18 11:38:39;;;;;;;4.00;2.13;;;35.50;29.00;;;;;;7381364;19;20729;-41
2022/06/18 11:41:16;;;;;;;2.37;2.17;;;35.40;29.60;;;;;;7381647;19;20384;-41
2022/06/18 11:43:54;;;;;;;4.50;2.13;;;35.20;29.90;;;;;;7379429;19;20391;-41
2022/06/18 11:46:30;;;;;;;3.80;2.03;;;35.10;28.60;;;;;;7375275;19;20440;-40
2022/06/18 11:49:06;;;;;;;2.00;1.90;;;35.30;29.00;;;;;;7365140;19;20379;-41
2022/06/18 11:51:43;;;;;;;3.43;1.93;;;35.20;28.90;;;;;;7370813;19;20373;-45
2022/06/18 11:54:23;;;;;;;4.07;2.30;;;35.10;28.90;;;;;;7377585;19;20372;-44
2022/06/18 11:56:58;;;;;;;4.10;1.70;;;35.40;28.30;;;;;;7376827;19;20983;-45
2022/06/18 11:59:40;;;;;;;7.37;2.40;;;35.20;27.70;;;;;;7376442;19;20376;-45
2022/06/18 12:02:16;;;;;;;4.20;2.30;;;35.40;27.40;;;;;;7379154;19;20421;-45
2022/06/18 12:04:53;;;;;;;6.33;2.70;;;35.70;27.50;;;;;;7375200;19;20463;-44
2022/06/18 12:07:32;;;;;;;4.10;2.30;;;35.90;27.40;;;;;;7372906;19;20771;-45
2022/06/18 12:10:01;;;;;;;3.30;1.77;;;36.00;28.20;;;;;;7378120;19;20965;-44
2022/06/18 12:12:49;;;;;;;4.83;2.00;;;35.70;27.30;;;;;;7377566;19;20393;-44
2022/06/18 12:15:29;;;;;;;3.93;2.00;;;35.60;27.20;;;;;;7378246;19;21115;-45
2022/06/18 12:18:15;;;;;;;3.57;1.90;;;35.70;27.50;;;;;;7377903;19;20379;-45
2022/06/18 12:21:04;;;;;;;7.03;2.50;;;35.70;27.40;;;;;;7377005;19;20383;-44
2022/06/18 12:23:50;;;;;;;7.30;2.70;;;35.70;27.50;;;;;;7364994;19;20384;-45
2022/06/18 12:26:25;;;;;;;3.80;2.33;;;36.00;27.40;;;;;;7373610;19;20368;-45
2022/06/18 12:29:28;;;;;;;6.90;2.30;;;36.10;27.80;;;;;;7376572;19;20368;-48
2022/06/18 12:32:06;;;;;;;8.90;2.67;;;36.20;27.80;;;;;;7377669;19;20407;-42
2022/06/18 12:34:50;;;;;;;6.43;2.67;;;36.20;27.20;;;;;;7371632;19;20424;-41
2022/06/18 12:37:29;;;;;;;5.70;2.63;;;36.10;27.60;;;;;;7376103;19;20364;-42
2022/06/18 12:40:06;;;;;;;5.70;2.57;;;36.10;28.00;;;;;;7374883;19;20923;-41
2022/06/18 12:42:43;;;;;;;7.00;3.23;;;35.90;28.10;;;;;;7373861;19;20412;-42
2022/06/18 12:45:28;;;;;;;10.00;4.40;;;36.10;27.90;;;;;;7375925;19;20934;-41
2022/06/18 12:48:09;;;;;;;7.17;3.10;;;36.40;27.60;;;;;;7368934;19;20407;-42
2022/06/18 12:50:54;;;;;;;9.30;2.60;;;36.20;28.00;;;;;;7376523;19;20392;-41
2022/06/18 12:53:39;;;;;;;3.33;2.10;;;36.20;28.30;;;;;;7375717;19;20371;-41
2022/06/18 12:56:21;;;;;;;5.07;3.80;;;36.40;28.50;;;;;;7378849;19;20405;-42
2022/06/18 12:58:58;;;;;;;5.93;2.97;;;36.40;28.30;;;;;;7374558;19;20375;-41
2022/06/18 13:01:36;;;;;;;15.17;3.70;;;35.90;28.30;;;;;;7368782;19;20456;-43
2022/06/18 13:04:25;;;;;;;6.97;2.60;;;36.10;28.50;;;;;;7370857;19;20388;-42
2022/06/18 13:07:00;;;;;;;6.73;2.70;;;36.20;28.30;;;;;;7372567;19;20451;-43
2022/06/18 13:09:43;;;;;;;9.77;3.60;;;36.00;29.10;;;;;;7375493;19;20431;-43
2022/06/18 13:12:41;;;;;;;8.50;2.73;;;36.00;29.10;;;;;;7371005;19;20360;-43
2022/06/18 13:15:27;;;;;;;10.53;3.00;;;36.00;29.40;;;;;;7363074;19;20894;-42
2022/06/18 13:18:04;;;;;;;9.90;3.20;;;35.90;29.80;;;;;;7347970;19;20440;-44
2022/06/18 13:20:40;;;;;;;6.77;3.40;;;35.90;30.00;;;;;;7369236;19;20408;-44
2022/06/18 13:28:49;;;;;;;10.03;3.97;;;35.70;30.10;;;;;;7358744;19;20391;-42
2022/06/18 13:31:30;;;;;;;6.83;2.93;;;35.80;30.20;;;;;;7362032;19;20404;-40
2022/06/18 13:34:08;;;;;;;5.40;3.07;;;35.90;30.00;;;;;;7359645;19;20371;-40
2022/06/18 13:36:48;;;;;;;3.70;2.70;;;36.30;30.00;;;;;;7373302;19;20405;-41
2022/06/18 13:39:26;;;;;;;8.03;3.47;;;36.80;29.90;;;;;;7364374;19;20387;-41
2022/06/18 13:42:08;;;;;;;8.10;3.00;;;37.20;29.40;;;;;;7370901;19;20443;-40
2022/06/18 13:44:55;;;;;;;6.50;3.23;;;37.60;29.10;;;;;;7360425;19;21043;-41
2022/06/18 13:47:31;;;;;;;6.77;2.90;;;37.50;28.70;;;;;;7357963;19;20439;-41
2022/06/18 13:50:09;;;;;;;5.57;3.40;;;36.90;29.60;;;;;;7369697;19;20739;-41